KGFL

Floyd Bennett Memorial Airport

Glens Falls, New York, USA
METAR KGFL 252153Z AUTO 24007KT 10SM BKN090 OVC110 28/11 A2974 RMK AO2 SLP071 T02830111
Observed Flight Rules
May-25 @ 21:53 UTC (41 minutes ago) Visual Flight Rules
Wind Visibility Clouds
240° at 7 knots 10 miles
  • Broken at 9,000' AGL
  • Overcast at 11,000' AGL
Temperatures Readings
Current 28°C / 82°F
Dewpoint 11°C / 52°F
Humidity 35%
Altimeter 29.74" Hg
Pressure 1007.1 hPa
Elevation 103
METAR KGFL 252153Z AUTO 24007KT 10SM BKN090 OVC110 28/11 A2974 RMK AO2 SLP071 T02830111
Observed Flight Rules
May-25 @ 21:53 UTC
(41 minutes ago)
VFR
Wind Visibility
240° at 7 knots 10 miles
Clouds
  • Broken at 9,000' AGL
  • Overcast at 11,000' AGL
Temperature Dewpoint
28°C / 82°F 11°C / 52°F
Humidity Altimeter Pressure
35% 29.74" Hg 1007.1 hPa